createdAt,value
2019-02-11T00:04:20.823Z,4.6
2019-02-11T00:09:23.018Z,4.6
2019-02-11T00:14:25.457Z,4.6
2019-02-11T00:19:27.879Z,4.5
2019-02-11T00:24:30.338Z,4.5
2019-02-11T00:29:32.812Z,4.5
2019-02-11T00:34:35.271Z,4.4
2019-02-11T00:39:37.726Z,4.4
2019-02-11T00:44:40.235Z,4.4
2019-02-11T00:49:42.618Z,4.5
2019-02-11T00:54:45.095Z,4.5
2019-02-11T00:59:47.599Z,4.5
2019-02-11T01:04:49.997Z,4.4
2019-02-11T01:09:52.453Z,4.2
2019-02-11T01:14:54.908Z,4
2019-02-11T01:19:57.370Z,3.9
2019-02-11T01:24:59.826Z,3.8
2019-02-11T01:30:02.416Z,3.7
2019-02-11T01:35:04.768Z,3.6
2019-02-11T01:40:07.240Z,3.5
2019-02-11T01:45:09.667Z,3.4
2019-02-11T01:50:12.205Z,3.4
2019-02-11T01:55:14.573Z,3.3
2019-02-11T02:00:22.066Z,3.2
2019-02-11T02:05:19.492Z,3.1
2019-02-11T02:10:21.974Z,3
2019-02-11T02:15:24.382Z,2.9
2019-02-11T02:20:26.846Z,2.9
2019-02-11T02:25:29.314Z,2.8
2019-02-11T02:30:31.770Z,2.7
2019-02-11T02:35:34.322Z,2.7
2019-02-11T02:40:36.695Z,2.7
2019-02-11T02:45:39.131Z,2.6
2019-02-11T02:50:41.590Z,2.5
2019-02-11T02:55:44.092Z,2.5
2019-02-11T03:00:46.573Z,2.4
2019-02-11T03:05:48.961Z,2.3
2019-02-11T03:10:51.431Z,2.2
2019-02-11T03:15:53.883Z,2.1
2019-02-11T03:20:56.353Z,2
2019-02-11T03:25:58.816Z,1.9
2019-02-11T03:31:01.372Z,1.9
2019-02-11T03:36:03.728Z,1.8
2019-02-11T03:41:06.248Z,1.8
2019-02-11T03:46:08.707Z,1.8
2019-02-11T03:51:11.203Z,1.8
2019-02-11T03:56:13.595Z,1.8
2019-02-11T04:01:16.151Z,1.8
2019-02-11T04:06:18.549Z,1.8
2019-02-11T04:11:21.066Z,1.8
2019-02-11T04:16:23.481Z,1.8
2019-02-11T04:21:25.916Z,1.8
2019-02-11T04:26:28.431Z,1.8
2019-02-11T04:31:30.825Z,1.8
2019-02-11T04:36:33.291Z,1.9
2019-02-11T04:41:35.766Z,1.9
2019-02-11T04:46:38.236Z,2
2019-02-11T04:51:40.763Z,2
2019-02-11T04:56:43.164Z,2
2019-02-11T05:01:45.643Z,2
2019-02-11T05:06:48.169Z,2
2019-02-11T05:11:50.660Z,2
2019-02-11T05:16:53.118Z,2
2019-02-11T05:21:55.470Z,2
2019-02-11T05:26:57.964Z,2.1
2019-02-11T05:32:00.491Z,2.1
2019-02-11T05:37:02.870Z,2.1
2019-02-11T05:42:05.381Z,2.1
2019-02-11T05:47:07.838Z,2.1
2019-02-11T05:52:10.257Z,2.1
2019-02-11T05:57:12.740Z,2.1
2019-02-11T06:02:15.184Z,2
2019-02-11T06:07:17.671Z,2
2019-02-11T06:12:20.117Z,2.1
2019-02-11T06:17:22.582Z,2.1
2019-02-11T06:22:25.043Z,2.1
2019-02-11T06:27:27.512Z,2.1
2019-02-11T06:32:29.978Z,2.1
2019-02-11T06:37:32.521Z,2.1
2019-02-11T06:42:34.904Z,2.1
2019-02-11T06:47:37.354Z,2.1
2019-02-11T06:52:39.839Z,2.2
2019-02-11T06:57:42.283Z,2.2
2019-02-11T07:02:44.775Z,2.2
2019-02-11T07:07:47.228Z,2.2
2019-02-11T07:12:49.680Z,2.3
2019-02-11T07:17:52.130Z,2.4
2019-02-11T07:22:54.662Z,2.5
2019-02-11T07:27:57.081Z,2.5
2019-02-11T07:32:59.529Z,2.6
2019-02-11T07:38:02.108Z,2.7
2019-02-11T07:43:04.481Z,2.6
2019-02-11T07:48:06.907Z,2.7
2019-02-11T07:53:09.369Z,2.9
2019-02-11T07:58:11.845Z,2.9
2019-02-11T08:03:14.287Z,3.1
2019-02-11T08:08:16.721Z,3.1
2019-02-11T08:13:19.206Z,3.1
2019-02-11T08:18:21.639Z,3.2
2019-02-11T08:23:24.103Z,3.4
2019-02-11T08:28:26.562Z,3.8
2019-02-11T08:33:30.443Z,4.2
2019-02-11T08:38:31.477Z,4.4
2019-02-11T08:43:34.008Z,4.3
2019-02-11T08:48:36.417Z,4.1
2019-02-11T08:53:38.870Z,4.1
2019-02-11T08:58:41.318Z,4.2
2019-02-11T09:03:43.752Z,4.2
2019-02-11T09:08:46.241Z,4.3
2019-02-11T09:13:48.721Z,4.2
2019-02-11T09:18:51.120Z,4.1
2019-02-11T09:23:53.574Z,4
2019-02-11T09:28:56.044Z,3.9
2019-02-11T09:33:58.496Z,4
2019-02-11T09:39:00.996Z,4.4
2019-02-11T09:44:03.413Z,4.4
2019-02-11T09:49:05.868Z,4.6
2019-02-11T09:54:08.334Z,5
2019-02-11T09:59:10.843Z,5.3
2019-02-11T10:04:13.244Z,5.5
2019-02-11T10:09:15.698Z,5.6
2019-02-11T10:14:18.173Z,5.5
2019-02-11T10:19:20.627Z,5.7
2019-02-11T10:24:23.113Z,5.8
2019-02-11T10:29:25.538Z,5.6
2019-02-11T10:34:28.002Z,5.5
2019-02-11T10:39:30.500Z,5.4
2019-02-11T10:44:32.919Z,5.3
2019-02-11T10:49:35.358Z,5.5
2019-02-11T10:54:37.828Z,5.6
2019-02-11T10:59:40.362Z,5.6
2019-02-11T11:04:42.798Z,5.4
2019-02-11T11:09:45.231Z,5.4
2019-02-11T11:14:47.715Z,5.4
2019-02-11T11:19:50.141Z,5.3
2019-02-11T11:24:52.624Z,5.1
2019-02-11T11:29:55.036Z,4.9
2019-02-11T11:34:57.500Z,4.5
2019-02-11T11:39:59.950Z,4.3
2019-02-11T11:45:02.519Z,4.2
2019-02-11T11:50:04.870Z,4.2
2019-02-11T11:55:07.322Z,4.1
2019-02-11T12:00:09.862Z,4.1
2019-02-11T12:05:12.289Z,4.1
2019-02-11T12:10:14.820Z,4.3
2019-02-11T12:15:17.316Z,4.3
2019-02-11T12:20:19.618Z,4.5
2019-02-11T12:25:22.083Z,4.6
2019-02-11T12:30:24.550Z,4.7
2019-02-11T12:35:27.067Z,4.6
2019-02-11T12:40:29.470Z,4.7
2019-02-11T12:45:31.924Z,4.8
2019-02-11T12:50:34.397Z,4.8
2019-02-11T12:55:36.826Z,4.9
2019-02-11T13:00:39.338Z,5.8
2019-02-11T13:05:45.404Z,6.6
2019-02-11T13:10:44.223Z,6.7
2019-02-11T13:15:59.702Z,6.4
2019-02-11T13:20:49.201Z,6.2
2019-02-11T13:25:51.566Z,6.1
2019-02-11T13:30:54.022Z,5.8
2019-02-11T13:35:56.543Z,5.3
2019-02-11T13:40:58.944Z,4.6
2019-02-11T13:46:01.563Z,4.1
2019-02-11T13:51:03.975Z,4
2019-02-11T13:56:06.391Z,4.3
2019-02-11T14:01:08.803Z,4.5
2019-02-11T14:06:11.386Z,4.4
2019-02-11T14:11:13.698Z,4.3
2019-02-11T14:16:16.247Z,4.3
2019-02-11T14:21:18.601Z,4
2019-02-11T14:26:21.044Z,3.8
2019-02-11T14:31:23.490Z,3.6
2019-02-11T14:36:25.958Z,3.5
2019-02-11T14:41:28.416Z,3.5
2019-02-11T14:46:30.893Z,3.5
2019-02-11T14:51:33.344Z,3.3
2019-02-11T14:56:35.773Z,3.4
2019-02-11T15:01:38.294Z,3.4
2019-02-11T15:06:40.739Z,3.4
2019-02-11T15:11:43.167Z,3.5
2019-02-11T15:16:45.615Z,3.4
2019-02-11T15:21:48.083Z,3.4
2019-02-11T15:26:50.505Z,3.3
2019-02-11T15:31:52.990Z,3.3
2019-02-11T15:36:55.425Z,3.3
2019-02-11T15:41:57.918Z,3.3
2019-02-11T15:47:00.343Z,3.2
2019-02-11T15:52:02.809Z,3
2019-02-11T15:57:05.253Z,2.8
2019-02-11T16:02:07.736Z,2.6
2019-02-11T16:07:10.175Z,2.5
2019-02-11T16:12:12.699Z,2.4
2019-02-11T16:17:15.084Z,2.2
2019-02-11T16:22:17.605Z,2.1
2019-02-11T16:27:20.052Z,1.9
2019-02-11T16:32:22.482Z,1.8
2019-02-11T16:37:24.955Z,2
2019-02-11T16:42:27.536Z,2.1
2019-02-11T16:47:30.071Z,2.1
2019-02-11T16:52:32.381Z,2
2019-02-11T16:57:34.813Z,1.9
2019-02-11T17:02:37.264Z,1.8
2019-02-11T17:07:41.777Z,1.7
2019-02-11T17:12:42.278Z,1.7
2019-02-11T17:17:44.672Z,1.7
2019-02-11T17:22:47.103Z,1.7
2019-02-11T17:27:49.575Z,1.8
2019-02-11T17:32:52.063Z,1.8
2019-02-11T17:37:54.515Z,1.8
2019-02-11T17:42:56.963Z,1.8
2019-02-11T17:47:59.490Z,1.8
2019-02-11T17:53:06.893Z,1.7
2019-02-11T18:03:06.827Z,1.8
2019-02-11T18:08:09.284Z,1.9
2019-02-11T18:13:11.755Z,1.9
2019-02-11T18:18:14.240Z,1.9
2019-02-11T18:23:16.670Z,1.9
2019-02-11T18:28:19.142Z,1.9
2019-02-11T18:33:21.609Z,2
2019-02-11T18:38:24.063Z,2
2019-02-11T18:43:26.598Z,2
2019-02-11T18:48:29.042Z,2.1
2019-02-11T18:53:31.561Z,2.1
2019-02-11T18:58:33.914Z,2.1
2019-02-11T19:03:36.439Z,2.2
2019-02-11T19:08:38.846Z,2.2
2019-02-11T19:13:41.319Z,2.2
2019-02-11T19:18:43.826Z,2.2
2019-02-11T19:23:46.313Z,2.2
2019-02-11T19:28:48.687Z,2.1
2019-02-11T19:33:51.179Z,2.1
2019-02-11T19:38:53.607Z,2.1
2019-02-11T19:43:56.108Z,2.1
2019-02-11T19:48:58.559Z,2.1
2019-02-11T19:54:01.006Z,2
2019-02-11T19:59:03.502Z,2.1
2019-02-11T20:04:07.447Z,2.1
2019-02-11T20:09:08.396Z,2
2019-02-11T20:14:10.914Z,2.1
2019-02-11T20:19:13.326Z,2
2019-02-11T20:24:15.792Z,2
2019-02-11T20:29:18.267Z,2
2019-02-11T20:34:20.786Z,1.9
2019-02-11T20:39:23.223Z,1.9
2019-02-11T20:44:25.644Z,1.8
2019-02-11T20:49:28.132Z,1.8
2019-02-11T20:54:30.584Z,1.6
2019-02-11T20:59:33.022Z,1.6
2019-02-11T21:04:35.498Z,1.5
2019-02-11T21:09:37.962Z,1.5
2019-02-11T21:14:40.448Z,1.5
2019-02-11T21:19:42.895Z,1.4
2019-02-11T21:24:45.446Z,1.4
2019-02-11T21:29:47.852Z,1.3
2019-02-11T21:34:50.537Z,1.3
2019-02-11T21:39:52.757Z,1.2
2019-02-11T21:44:55.264Z,1.2
2019-02-11T21:49:57.700Z,1.2
2019-02-11T21:55:00.270Z,1.2
2019-02-11T22:00:02.774Z,1.2
2019-02-11T22:05:05.062Z,1.2
2019-02-11T22:10:07.578Z,1.2
2019-02-11T22:15:09.996Z,1.2
2019-02-11T22:20:12.485Z,1.2
2019-02-11T22:25:14.969Z,1.2
2019-02-11T22:30:17.445Z,1.2
2019-02-11T22:35:19.960Z,1.2
2019-02-11T22:40:22.358Z,1.2
2019-02-11T22:45:24.860Z,1.2
2019-02-11T22:50:27.245Z,1.1
2019-02-11T22:55:29.734Z,0.9
2019-02-11T23:00:32.217Z,0.7
2019-02-11T23:05:34.644Z,0.6
2019-02-11T23:10:37.102Z,0.5
2019-02-11T23:15:39.578Z,0.4
2019-02-11T23:20:42.022Z,0.4
2019-02-11T23:25:44.592Z,0.5
2019-02-11T23:30:46.951Z,0.6
2019-02-11T23:35:49.546Z,0.7
2019-02-11T23:40:51.885Z,0.8
2019-02-11T23:45:54.367Z,0.8
2019-02-11T23:51:00.394Z,0.7
2019-02-11T23:55:59.286Z,0.6
